createdAt,value
2023-02-02T00:04:55.833Z,8.55
2023-02-02T00:09:58.047Z,6.75
2023-02-02T00:15:00.153Z,4.73
2023-02-02T00:20:02.264Z,5.62
2023-02-02T00:25:05.944Z,5.63
2023-02-02T00:30:09.022Z,5.72
2023-02-02T00:35:11.167Z,5.43
2023-02-02T00:40:13.505Z,6.37
2023-02-02T00:45:18.671Z,6.32
2023-02-02T00:50:21.357Z,5.47
2023-02-02T00:55:24.159Z,7.00
2023-02-02T01:00:27.564Z,4.90
2023-02-02T01:05:30.634Z,3.10
2023-02-02T01:10:34.132Z,6.28
2023-02-02T01:15:37.278Z,5.13
2023-02-02T01:20:39.350Z,5.22
2023-02-02T01:25:41.453Z,5.95
2023-02-02T01:30:43.537Z,3.93
2023-02-02T01:35:50.933Z,3.12
2023-02-02T01:40:56.028Z,2.60
2023-02-02T01:45:59.249Z,5.85
2023-02-02T01:51:06.935Z,2.12
2023-02-02T01:56:12.107Z,3.60
2023-02-02T02:01:15.071Z,2.70
2023-02-02T02:06:19.044Z,3.40
2023-02-02T02:11:22.634Z,2.95
2023-02-02T02:16:37.142Z,2.58
2023-02-02T02:22:24.781Z,2.87
2023-02-02T02:27:45.204Z,3.37
2023-02-02T02:32:52.836Z,2.00
2023-02-02T02:38:06.124Z,2.20
2023-02-02T02:43:18.906Z,2.58
2023-02-02T02:48:21.424Z,4.37
2023-02-02T02:53:24.217Z,3.10
2023-02-02T02:58:53.640Z,1.90
2023-02-02T03:04:04.649Z,4.15
2023-02-02T03:09:11.841Z,3.55
2023-02-02T03:14:13.944Z,2.77
2023-02-02T03:19:16.086Z,3.92
2023-02-02T03:24:18.177Z,4.73
2023-02-02T03:29:20.381Z,3.85
2023-02-02T03:34:22.566Z,3.67
2023-02-02T03:39:24.626Z,4.87
2023-02-02T03:44:26.881Z,6.57
2023-02-02T03:49:29.005Z,3.70
2023-02-02T03:54:31.554Z,5.75
2023-02-02T03:59:33.700Z,3.28
2023-02-02T04:04:35.870Z,3.40
2023-02-02T04:09:37.945Z,4.53
2023-02-02T04:14:40.062Z,3.87
2023-02-02T04:19:42.327Z,2.08
2023-02-02T04:24:44.424Z,3.17
2023-02-02T04:29:46.663Z,3.13
2023-02-02T04:34:48.841Z,4.40
2023-02-02T04:39:50.974Z,1.43
2023-02-02T04:44:53.111Z,4.35
2023-02-02T04:49:55.209Z,3.25
2023-02-02T04:54:57.336Z,2.33
2023-02-02T04:59:59.424Z,6.18
2023-02-02T05:05:01.546Z,4.93
2023-02-02T05:10:07.928Z,4.72
2023-02-02T05:15:10.677Z,4.85
2023-02-02T05:20:12.986Z,4.80
2023-02-02T05:25:15.181Z,7.00
2023-02-02T05:30:17.717Z,4.70
2023-02-02T05:35:19.858Z,6.50
2023-02-02T05:40:21.986Z,4.80
2023-02-02T05:45:24.527Z,5.90
2023-02-02T05:50:26.799Z,4.55
2023-02-02T05:55:28.877Z,5.90
2023-02-02T06:00:30.997Z,5.78
2023-02-02T06:05:33.147Z,3.85
2023-02-02T06:10:36.252Z,5.43
2023-02-02T06:15:38.569Z,4.47
2023-02-02T06:20:40.777Z,6.50
2023-02-02T06:25:42.889Z,5.70
2023-02-02T06:30:45.598Z,6.03
2023-02-02T06:35:47.841Z,5.13
2023-02-02T06:40:50.066Z,5.40
2023-02-02T06:45:52.358Z,3.67
2023-02-02T06:50:57.448Z,4.60
2023-02-02T06:56:04.399Z,4.18
2023-02-02T07:01:09.578Z,4.20
2023-02-02T07:06:20.651Z,5.97
2023-02-02T07:11:23.288Z,2.67
2023-02-02T07:16:25.723Z,5.32
2023-02-02T07:21:36.326Z,6.45
2023-02-02T07:26:39.208Z,5.10
2023-02-02T07:31:42.027Z,5.90
2023-02-02T07:36:44.348Z,6.73
2023-02-02T07:41:46.443Z,5.62
2023-02-02T07:46:48.716Z,5.90
2023-02-02T07:51:50.901Z,6.07
2023-02-02T07:56:53.314Z,5.25
2023-02-02T08:01:55.600Z,7.23
2023-02-02T08:06:57.797Z,6.70
2023-02-02T08:12:02.436Z,5.90
2023-02-02T08:17:04.646Z,5.03
2023-02-02T08:22:06.944Z,4.82
2023-02-02T08:27:10.030Z,4.80
2023-02-02T08:32:12.500Z,5.50
2023-02-02T08:37:14.798Z,4.90
2023-02-02T08:42:16.990Z,4.90
2023-02-02T08:47:19.170Z,6.60
2023-02-02T08:52:21.471Z,3.80
2023-02-02T08:57:23.551Z,3.22
2023-02-02T09:02:25.881Z,4.15
2023-02-02T09:07:27.982Z,3.37
2023-02-02T09:12:31.309Z,3.87
2023-02-02T09:17:33.411Z,3.27
2023-02-02T09:22:35.521Z,3.62
2023-02-02T09:27:41.060Z,4.97
2023-02-02T09:32:43.371Z,5.83
2023-02-02T09:37:45.597Z,5.65
2023-02-02T09:43:28.683Z,4.73
2023-02-02T09:48:58.410Z,7.00
2023-02-02T09:54:10.180Z,6.72
2023-02-02T09:59:22.839Z,5.03
2023-02-02T10:04:39.820Z,4.50
2023-02-02T10:10:04.159Z,7.50
2023-02-02T10:15:23.055Z,5.78
2023-02-02T10:20:46.509Z,6.07
2023-02-02T10:26:20.138Z,5.57
2023-02-02T10:31:43.060Z,4.70
2023-02-02T10:37:00.443Z,6.03
2023-02-02T10:42:23.779Z,6.05
2023-02-02T10:47:35.692Z,5.78
2023-02-02T10:52:39.933Z,6.40
2023-02-02T10:58:23.007Z,6.15
2023-02-02T11:03:28.592Z,6.17
2023-02-02T11:08:38.964Z,3.87
2023-02-02T11:13:47.945Z,4.55
2023-02-02T11:18:50.504Z,7.67
2023-02-02T11:24:30.373Z,5.87
2023-02-02T11:29:38.828Z,5.03
2023-02-02T11:34:41.020Z,5.95
2023-02-02T11:39:44.549Z,5.87
2023-02-02T11:44:53.342Z,8.67
2023-02-02T11:49:58.712Z,4.75
2023-02-02T11:55:14.709Z,6.30
2023-02-02T12:00:19.525Z,6.12
2023-02-02T12:05:21.598Z,6.30
2023-02-02T12:10:42.108Z,5.60
2023-02-02T12:15:51.347Z,4.68
2023-02-02T12:21:26.918Z,6.33
2023-02-02T12:26:32.005Z,7.72
2023-02-02T12:31:37.081Z,5.93
2023-02-02T12:37:04.609Z,5.00
2023-02-02T12:42:35.106Z,5.95
2023-02-02T12:47:55.775Z,7.37
2023-02-02T12:53:22.722Z,4.70
2023-02-02T12:58:37.287Z,4.35
2023-02-02T13:03:58.114Z,3.20
2023-02-02T13:09:19.704Z,6.87
2023-02-02T13:14:34.092Z,3.90
2023-02-02T13:19:41.455Z,6.30
2023-02-02T13:24:48.041Z,5.12
2023-02-02T13:29:56.867Z,4.87
2023-02-02T13:35:21.653Z,7.85
2023-02-02T13:40:32.915Z,7.07
2023-02-02T13:45:53.912Z,6.43
2023-02-02T13:51:26.712Z,5.65
2023-02-02T13:56:31.857Z,6.33
2023-02-02T14:01:35.967Z,6.22
2023-02-02T14:07:00.230Z,6.90
2023-02-02T14:12:07.369Z,5.28
2023-02-02T14:17:20.369Z,5.12
2023-02-02T14:22:44.695Z,8.90
2023-02-02T14:27:59.936Z,6.43
2023-02-02T14:33:20.618Z,5.67
2023-02-02T14:38:44.656Z,5.35
2023-02-02T14:43:53.995Z,6.28
2023-02-02T14:48:57.912Z,6.60
2023-02-02T14:54:03.669Z,4.47
2023-02-02T14:59:07.694Z,6.10
2023-02-02T15:04:22.641Z,6.03
2023-02-02T15:09:27.992Z,6.97
2023-02-02T15:14:58.373Z,4.80
2023-02-02T15:20:09.375Z,7.40
2023-02-02T15:25:26.701Z,7.50
2023-02-02T15:30:34.444Z,8.15
2023-02-02T15:35:38.297Z,5.50
2023-02-02T15:40:41.072Z,7.43
2023-02-02T15:45:50.044Z,8.15
2023-02-02T15:50:56.659Z,7.13
2023-02-02T15:55:59.189Z,4.50
2023-02-02T16:01:03.197Z,6.12
2023-02-02T16:06:07.829Z,6.27
2023-02-02T16:11:13.332Z,6.40
2023-02-02T16:16:25.298Z,7.00
2023-02-02T16:21:29.296Z,5.55
2023-02-02T16:26:33.403Z,6.40
2023-02-02T16:31:36.087Z,6.27
2023-02-02T16:36:38.302Z,8.57
2023-02-02T16:41:40.545Z,8.00
2023-02-02T16:46:49.130Z,5.28
2023-02-02T16:52:09.934Z,7.03
2023-02-02T16:57:21.821Z,8.30
2023-02-02T17:02:26.700Z,8.75
2023-02-02T17:07:31.253Z,7.43
2023-02-02T17:12:34.784Z,7.15
2023-02-02T17:17:38.646Z,9.77
2023-02-02T17:22:44.444Z,7.27
2023-02-02T17:27:47.149Z,7.12
2023-02-02T17:32:52.704Z,7.97
2023-02-02T17:37:55.364Z,7.82
2023-02-02T17:42:57.636Z,6.93
2023-02-02T17:48:02.879Z,9.30
2023-02-02T17:53:05.496Z,7.32
2023-02-02T17:58:08.887Z,9.37
2023-02-02T18:03:34.239Z,7.25
2023-02-02T18:08:36.605Z,6.50
2023-02-02T18:13:39.158Z,6.20
2023-02-02T18:18:41.586Z,7.82
2023-02-02T18:23:48.013Z,7.87
2023-02-02T18:28:50.880Z,11.38
2023-02-02T18:33:53.863Z,7.18
2023-02-02T18:38:56.427Z,8.63
2023-02-02T18:43:58.543Z,8.55
2023-02-02T18:49:00.954Z,9.80
2023-02-02T18:54:03.316Z,10.45
2023-02-02T18:59:06.981Z,5.00
2023-02-02T19:04:13.351Z,7.13
2023-02-02T19:09:17.311Z,7.03
2023-02-02T19:14:19.610Z,6.53
2023-02-02T19:19:33.284Z,10.45
2023-02-02T19:24:39.967Z,12.05
2023-02-02T19:29:42.156Z,9.13
2023-02-02T19:34:46.934Z,9.25
2023-02-02T19:39:49.549Z,7.53
2023-02-02T19:44:53.283Z,11.73
2023-02-02T19:49:57.033Z,10.55
2023-02-02T19:55:00.561Z,8.23
2023-02-02T20:00:20.579Z,8.80
2023-02-02T20:05:29.612Z,8.97
2023-02-02T20:10:43.586Z,8.77
2023-02-02T20:15:46.344Z,6.80
2023-02-02T20:20:52.584Z,10.47
2023-02-02T20:25:55.076Z,11.12
2023-02-02T20:30:57.221Z,8.83
2023-02-02T20:36:02.308Z,7.65
2023-02-02T20:41:05.881Z,7.53
2023-02-02T20:46:08.048Z,6.53
2023-02-02T20:51:10.635Z,8.23
2023-02-02T20:56:12.889Z,10.50
2023-02-02T21:01:15.184Z,9.20
2023-02-02T21:06:17.405Z,9.40
2023-02-02T21:11:19.963Z,10.57
2023-02-02T21:16:22.493Z,8.30
2023-02-02T21:21:24.700Z,10.73
2023-02-02T21:26:31.930Z,10.93
2023-02-02T21:31:39.692Z,11.50
2023-02-02T21:36:47.019Z,10.37
2023-02-02T21:41:55.082Z,13.73
2023-02-02T21:46:57.406Z,8.93
2023-02-02T21:52:02.593Z,9.63
2023-02-02T21:57:17.196Z,13.10
2023-02-02T22:02:44.966Z,10.23
2023-02-02T22:07:49.272Z,10.82
2023-02-02T22:12:51.371Z,10.73
2023-02-02T22:17:53.526Z,9.07
2023-02-02T22:22:55.616Z,7.90
2023-02-02T22:28:01.451Z,9.57
2023-02-02T22:33:06.082Z,8.10
2023-02-02T22:38:09.365Z,9.57
2023-02-02T22:43:13.418Z,8.43
2023-02-02T22:48:16.637Z,9.60
2023-02-02T22:53:18.854Z,9.17
2023-02-02T22:58:20.922Z,8.30
2023-02-02T23:03:22.998Z,9.13
2023-02-02T23:08:25.269Z,8.45
2023-02-02T23:13:27.328Z,13.65
2023-02-02T23:18:29.424Z,6.73
2023-02-02T23:23:31.508Z,8.32
2023-02-02T23:28:33.778Z,10.00
2023-02-02T23:33:35.910Z,8.80
2023-02-02T23:38:38.005Z,6.50
2023-02-02T23:43:42.577Z,10.97
2023-02-02T23:48:45.402Z,11.12
2023-02-02T23:53:47.510Z,9.23
2023-02-02T23:58:49.670Z,9.10
